Latest Weather Observations for Cummins Airport

IDS60801

Issued at 8:41 pm CDT Sunday 24 January 2021 (issued every 10 minutes, with the page automatically refreshed every 10 minutes)

About weather observations | Map of weather stations | Latest weather observations for SA | Other Formats
Station Details ID: 018217 Name: CUMMINS AERO Lat: -34.25 Lon: 135.71 Height: 60.11 m
Data from the previous 72 hours. | See also: Recent months at Cummins Airport
Date/Time
CDT
Temp
°C
App
Temp
°C
Dew
Point
°C
Rel
Hum
%
Delta-T
°C
Wind Press
QNH
hPa
Press
MSL
hPa
Rain since
9am
mm
Dir  Spd
km/h
Gust
km/h
Spd
kts
Gust
kts
24/08:30pm 34.5 31.1 5.9 17 15.6 WSW 13 19 7 10 1002.2 1002.0 0.0
24/08:00pm 35.9 31.0 5.2 15 16.6 WSW 20 26 11 14 1002.1 1001.9 0.0
24/07:30pm 36.2 30.4 4.5 14 17.0 WSW 24 33 13 18 1001.8 1001.6 0.0
24/07:00pm 37.4 30.5 4.4 13 17.8 W 30 39 16 21 1001.7 1001.5 0.0
24/06:30pm 38.0 30.8 4.8 13 18.1 WNW 32 43 17 23 1001.5 1001.3 0.0
24/06:00pm 38.2 31.9 3.8 12 18.5 WNW 26 35 14 19 1001.6 1001.4 0.0
24/05:30pm 38.3 31.6 3.9 12 18.5 W 28 35 15 19 1001.5 1001.3 0.0
24/05:00pm 39.3 32.8 4.7 12 18.9 WNW 28 41 15 22 1001.8 1001.6 0.0
24/04:30pm 39.5 33.2 3.6 11 19.4 WNW 26 43 14 23 1001.8 1001.6 0.0
24/04:00pm 38.1 33.4 6.0 14 17.8 WNW 20 28 11 15 1002.1 1001.9 0.0
24/03:30pm 39.2 34.8 4.6 12 18.9 NW 17 26 9 14 1002.3 1002.1 0.0
24/03:00pm 38.6 33.1 1.6 10 19.3 WNW 20 32 11 17 1002.6 1002.4 0.0
24/02:30pm 38.3 33.4 7.1 15 17.6 SSW 22 30 12 16 1002.8 1002.6 0.0
24/02:00pm 37.6 33.2 6.6 15 17.3 SW 19 28 10 15 1003.2 1003.0 0.0
24/01:30pm 37.8 32.8 4.7 13 18.0 SW 20 28 11 15 1003.5 1003.3 0.0
24/01:00pm 36.7 32.3 4.9 14 17.2 SSW 17 26 9 14 1003.7 1003.5 0.0
24/12:30pm 36.2 31.6 6.4 16 16.5 SSW 20 28 11 15 1003.8 1003.6 0.0
24/12:00pm 36.0 31.0 9.5 20 15.4 S 26 35 14 19 1004.0 1003.8 0.0
24/11:30am 34.7 30.0 9.2 21 14.6 SW 24 33 13 18 1004.1 1003.9 0.0
24/11:00am 36.4 31.6 2.5 12 17.6 WNW 17 26 9 14 1004.2 1004.0 0.0
24/10:30am 34.5 31.9 4.1 15 16.1 WNW 7 13 4 7 1004.0 1003.8 0.0
24/10:00am 32.8 30.1 5.4 18 14.6 SSE 9 11 5 6 1004.0 1003.8 0.0
24/09:30am 30.8 28.7 6.6 22 13.1 SE 7 11 4 6 1004.2 1004.0 0.0
24/09:00am 29.9 27.5 7.2 24 12.3 S 9 11 5 6 1004.3 1004.1 0.0
24/08:30am 29.3 26.4 6.7 24 12.1 SSE 11 13 6 7 1004.4 1004.2 0.0
24/08:00am 28.3 25.5 5.2 23 12.0 SE 9 11 5 6 1004.4 1004.2 0.0
24/07:30am 27.4 25.1 5.6 25 11.4 WSW 7 11 4 6 1004.2 1004.0 0.0
24/07:00am 28.8 23.9 2.1 18 13.1 W 17 28 9 15 1004.1 1003.9 0.0
24/06:30am 31.0 26.4 1.4 15 14.7 SW 15 30 8 16 1003.1 1002.9 0.0
24/06:00am 30.7 27.6 0.2 14 14.8 NNE 6 15 3 8 1003.1 1002.9 0.0
24/05:30am 32.0 27.2 0.2 13 15.5 NE 15 24 8 13 1003.0 1002.8 0.0
24/05:00am 33.4 27.8 0.1 12 16.3 NE 19 26 10 14 1002.8 1002.6 0.0
24/04:30am 32.4 27.0 1.5 14 15.5 NE 19 30 10 16 1002.7 1002.5 0.0
24/04:00am 32.0 26.7 2.1 15 15.0 ENE 19 26 10 14 1003.0 1002.8 0.0
24/03:30am 30.8 26.2 3.8 18 13.9 NE 17 28 9 15 1003.6 1003.4 0.0
24/03:00am 31.2 26.1 4.1 18 14.1 ENE 20 30 11 16 1003.2 1003.0 0.0
24/02:30am 31.0 25.3 4.7 19 13.8 ENE 24 33 13 18 1003.3 1003.1 0.0
24/02:00am 30.3 24.4 5.6 21 13.0 ENE 26 41 14 22 1003.4 1003.2 0.0
24/01:30am 29.8 25.0 5.8 22 12.7 ENE 20 30 11 16 1003.8 1003.6 0.0
24/01:00am 29.9 24.2 6.5 23 12.5 E 26 37 14 20 1004.2 1004.0 0.0
24/12:30am 30.3 25.1 5.6 21 13.1 ENE 22 33 12 18 1004.5 1004.3 0.0
24/12:00am 30.5 24.1 5.0 20 13.4 ENE 28 37 15 20 1004.7 1004.5 0.0
 
Date/Time
CDT
Temp
°C
App
Temp
°C
Dew
Point
°C
Rel
Hum
%
Delta-T
°C
Wind Press
QNH
hPa
Press
MSL
hPa
Rain since
9am
mm
Dir  Spd
km/h
Gust
km/h
Spd
kts
Gust
kts
23/11:30pm 31.0 25.3 3.1 17 14.2 ENE 22 35 12 19 1005.1 1004.9 0.0
23/11:00pm 30.7 24.8 3.7 18 13.8 E 24 35 13 19 1005.1 1004.9 0.0
23/10:30pm 30.5 25.5 3.5 18 13.8 ENE 19 26 10 14 1005.3 1005.1 0.0
23/10:00pm 30.3 26.8 3.4 18 13.7 ENE 11 15 6 8 1005.4 1005.2 0.0
23/09:30pm 29.9 26.7 3.0 18 13.6 E 9 15 5 8 1005.4 1005.2 0.0
23/09:00pm 30.8 26.1 3.0 17 14.1 E 17 22 9 12 1005.2 1005.0 0.0
23/08:30pm 31.4 26.8 1.7 15 14.8 ESE 15 24 8 13 1004.9 1004.7 0.0
23/08:00pm 32.2 27.2 1.3 14 15.3 ESE 17 22 9 12 1004.9 1004.7 0.0
23/07:30pm 33.2 26.3 0.0 12 16.3 SE 26 33 14 18 1004.9 1004.7 0.0
23/07:00pm 34.6 28.4 -0.1 11 17.1 SE 22 32 12 17 1004.9 1004.7 0.0
23/06:30pm 35.9 29.1 0.9 11 17.7 SE 26 30 14 16 1004.8 1004.6 0.0
23/06:00pm 37.7 30.9 0.9 10 18.8 ESE 26 35 14 19 1004.7 1004.5 0.0
23/05:30pm 38.4 32.5 4.0 12 18.5 ESE 24 33 13 18 1004.8 1004.6 0.0
23/05:00pm 39.5 32.2 2.2 10 19.6 ESE 30 39 16 21 1004.6 1004.4 0.0
23/04:30pm 41.0 34.9 4.7 11 20.0 E 26 41 14 22 1004.4 1004.2 0.0
23/04:00pm 41.2 37.7 3.5 10 20.4 NNE 11 19 6 10 1004.8 1004.6 0.0
23/03:30pm 41.4 37.4 0.5 8 21.3 WSW 11 17 6 9 1004.8 1004.6 0.0
23/03:00pm 41.0 36.2 0.3 8 21.0 NNW 15 22 8 12 1005.2 1005.0 0.0
23/02:30pm 40.9 36.5 0.2 8 21.0 NNW 13 26 7 14 1005.6 1005.4 0.0
23/02:00pm 40.8 36.6 1.7 9 20.6 NNW 13 26 7 14 1006.0 1005.8 0.0
23/01:30pm 40.8 36.2 1.7 9 20.6 NE 15 26 8 14 1006.3 1006.1 0.0
23/01:00pm 39.5 35.2 0.8 9 19.9 NE 13 20 7 11 1006.7 1006.5 0.0
23/12:30pm 38.9 33.4 0.3 9 19.7 NE 19 32 10 17 1007.2 1007.0 0.0
23/12:00pm 37.8 32.2 1.0 10 18.9 NE 20 28 11 15 1007.5 1007.3 0.0
23/11:30am 37.0 31.5 0.4 10 18.5 NNE 19 28 10 15 1007.9 1007.7 0.0
23/11:00am 35.8 30.7 3.1 13 17.1 NE 19 28 10 15 1008.3 1008.1 0.0
23/10:30am 34.1 27.8 1.8 13 16.4 NE 24 35 13 19 1008.4 1008.2 0.0
23/10:00am 32.9 27.0 1.9 14 15.6 NE 22 30 12 16 1008.5 1008.3 0.0
23/09:30am 31.5 25.8 2.7 16 14.6 ENE 22 32 12 17 1008.6 1008.4 0.0
23/09:00am 29.5 24.7 4.9 21 12.8 ENE 19 30 10 16 1008.6 1008.4 0.0
23/08:30am 27.0 22.5 6.9 28 10.7 ENE 20 32 11 17 1008.5 1008.3 0.0
23/08:00am 25.1 21.3 7.7 33 9.2 NE 17 26 9 14 1008.6 1008.4 0.0
23/07:30am 23.4 19.3 6.2 33 8.8 NE 17 26 9 14 1008.2 1008.0 0.0
23/07:00am 22.0 18.0 5.0 33 8.4 NE 15 22 8 12 1007.9 1007.7 0.0
23/06:30am 21.8 16.4 6.5 37 7.8 ENE 24 37 13 20 1007.6 1007.4 0.0
23/06:00am 22.3 16.6 2.9 28 9.3 E 22 33 12 18 1007.3 1007.1 0.0
23/05:30am 21.6 15.9 5.1 34 8.2 E 24 35 13 19 1007.2 1007.0 0.0
23/05:00am 21.3 15.8 7.5 41 7.1 E 26 37 14 20 1007.2 1007.0 0.0
23/04:30am 21.2 16.8 8.8 45 6.6 E 22 30 12 16 1007.4 1007.2 0.0
23/04:00am 21.3 18.9 7.2 40 7.3 E 9 17 5 9 1007.7 1007.5 0.0
23/03:30am 21.7 17.1 5.6 35 8.1 E 19 26 10 14 1007.9 1007.7 0.0
23/03:00am 21.4 19.5 9.0 45 6.6 ESE 9 20 5 11 1007.9 1007.7 0.0
23/02:30am 21.0 20.0 11.1 53 5.5 SE 7 13 4 7 1008.6 1008.4 0.0
23/02:00am 21.2 18.1 10.4 50 5.9 ESE 17 24 9 13 1008.9 1008.7 0.0
23/01:30am 20.9 18.7 9.5 48 6.1 SE 11 19 6 10 1009.5 1009.3 0.0
23/01:00am 22.2 19.1 5.6 34 8.3 E 11 17 6 9 1009.4 1009.2 0.0
23/12:30am 21.7 18.2 3.4 30 8.8 E 11 19 6 10 1009.7 1009.5 0.0
23/12:00am 21.5 16.7 2.7 29 8.9 ESE 17 20 9 11 1010.0 1009.8 0.0
 
Date/Time
CDT
Temp
°C
App
Temp
°C
Dew
Point
°C
Rel
Hum
%
Delta-T
°C
Wind Press
QNH
hPa
Press
MSL
hPa
Rain since
9am
mm
Dir  Spd
km/h
Gust
km/h
Spd
kts
Gust
kts
22/11:30pm 20.6 16.4 3.8 33 8.1 SE 15 19 8 10 1010.3 1010.1 0.0
22/11:00pm 21.1 16.7 4.6 34 8.1 SE 17 20 9 11 1010.7 1010.5 0.0
22/10:30pm 21.4 16.5 4.0 32 8.4 SSE 19 24 10 13 1010.8 1010.6 0.0
22/10:00pm 20.3 17.6 3.9 34 7.9 SSE 7 11 4 6 1010.7 1010.5 0.0
22/09:30pm 22.5 18.1 4.5 31 8.9 SSE 17 22 9 12 1010.7 1010.5 0.0
22/09:00pm 23.4 18.9 4.4 29 9.4 SE 17 20 9 11 1010.5 1010.3 0.0
22/08:30pm 24.7 19.2 3.9 26 10.3 SE 22 30 12 16 1010.4 1010.2 0.0
22/08:00pm 26.3 20.6 2.9 22 11.5 SE 22 28 12 15 1010.2 1010.0 0.0
22/07:30pm 28.3 22.5 4.6 22 12.2 SE 24 32 13 17 1009.9 1009.7 0.0
22/07:00pm 29.4 23.5 4.1 20 12.9 SE 24 33 13 18 1009.6 1009.4 0.0
22/06:30pm 29.7 23.7 5.1 21 12.8 SE 26 32 14 17 1009.7 1009.5 0.0
22/06:00pm 31.0 25.3 4.7 19 13.7 SE 24 30 13 16 1009.7 1009.5 0.0
22/05:30pm 32.7 26.0 1.7 14 15.6 SE 26 32 14 17 1009.4 1009.2 0.0
22/05:00pm 33.1 26.7 1.0 13 16.0 SE 24 32 13 17 1009.3 1009.1 0.0
22/04:30pm 33.7 27.4 1.5 13 16.2 ESE 24 32 13 17 1009.4 1009.2 0.0
22/04:00pm 33.7 28.3 2.5 14 16.0 SE 20 30 11 16 1009.6 1009.4 0.0
22/03:30pm 34.8 28.4 1.2 12 17.0 SE 24 37 13 20 1009.6 1009.4 0.0
22/03:00pm 35.6 30.1 1.8 12 17.3 S 20 28 11 15 1009.6 1009.4 0.0
22/02:30pm 34.4 29.1 -0.3 11 17.0 SSE 17 26 9 14 1010.0 1009.8 0.0
22/02:00pm 34.3 29.6 0.8 12 16.7 SSW 15 24 8 13 1010.3 1010.1 0.0
22/01:30pm 33.6 29.5 2.4 14 15.9 SE 13 19 7 10 1010.7 1010.5 0.0
22/01:00pm 33.4 29.5 3.3 15 15.6 S 13 22 7 12 1011.1 1010.8 0.0
22/12:30pm 32.6 29.5 3.5 16 15.0 SE 9 20 5 11 1011.2 1010.9 0.0
22/12:00pm 32.8 28.5 0.8 13 15.8 SE 13 20 7 11 1011.5 1011.2 0.0
22/11:30am 31.9 28.5 2.1 15 15.0 SE 9 20 5 11 1011.6 1011.3 0.0
22/11:00am 30.6 27.9 2.8 17 14.0 WNW 6 11 3 6 1011.9 1011.6 0.0
22/10:30am 29.8 27.0 2.9 18 13.5 E 7 11 4 6 1011.9 1011.6 0.0
22/10:00am 28.6 25.6 4.2 21 12.4 E 9 13 5 7 1011.9 1011.6 0.0
22/09:30am 27.0 23.7 4.7 24 11.4 SE 11 15 6 8 1012.1 1011.8 0.0
22/09:00am 24.4 23.3 7.1 33 9.1 ESE 2 9 1 5 1011.8 1011.5 0.0
22/08:30am 20.6 18.8 7.2 42 6.9 SSW 6 7 3 4 1011.7 1011.4 0.0
22/08:00am 16.5 15.7 6.6 52 4.9 CALM 0 0 0 0 1011.5 1011.2 0.0
22/07:30am 13.2 12.1 4.9 57 3.9 CALM 0 0 0 0 1011.4 1011.1 0.0
22/07:00am 9.9 8.2 1.8 57 3.4 CALM 0 0 0 0 1011.3 1011.0 0.0
22/06:30am 9.9 7.6 3.0 62 3.0 NE 4 9 2 5 1011.1 1010.8 0.0
22/06:00am 8.9 6.7 1.3 59 3.1 ESE 2 7 1 4 1011.0 1010.7 0.0
22/05:30am 11.3 9.1 3.3 58 3.5 SSE 4 7 2 4 1011.0 1010.7 0.0
22/05:00am 12.7 9.8 4.7 58 3.7 SE 9 11 5 6 1010.6 1010.4 0.0
22/04:30am 12.3 9.3 4.3 58 3.6 SE 9 11 5 6 1010.6 1010.4 0.0
22/04:00am 10.5 8.9 2.4 57 3.5 CALM 0 0 0 0 1010.7 1010.5 0.0
22/03:30am 10.4 8.8 2.7 59 3.3 CALM 0 0 0 0 1011.0 1010.7 0.0
22/03:00am 11.4 8.6 2.2 53 4.0 NW 6 7 3 4 1011.0 1010.7 0.0
22/02:30am 13.9 11.9 4.2 52 4.5 ESE 4 9 2 5 1010.7 1010.5 0.0
22/02:00am 12.1 9.1 4.3 59 3.5 SE 9 9 5 5 1010.8 1010.6 0.0
22/01:30am 12.1 9.4 3.9 57 3.7 ENE 7 9 4 5 1011.1 1010.8 0.0
22/01:00am 13.1 11.8 4.0 54 4.1 CALM 0 0 0 0 1011.5 1011.2 0.0
22/12:30am 14.6 12.1 4.6 51 4.7 SSW 7 11 4 6 1011.6 1011.3 0.0
22/12:00am 15.4 12.5 4.8 49 5.0 SW 9 11 5 6 1011.8 1011.5 0.0
 
Date/Time
CDT
Temp
°C
App
Temp
°C
Dew
Point
°C
Rel
Hum
%
Delta-T
°C
Wind Press
QNH
hPa
Press
MSL
hPa
Rain since
9am
mm
Dir  Spd
km/h
Gust
km/h
Spd
kts
Gust
kts
21/11:30pm 16.9 14.0 4.9 45 5.7 S 9 9 5 5 1011.6 1011.3 0.0
21/11:00pm 18.8 16.4 4.2 38 7.0 SSE 6 7 3 4 1011.4 1011.1 0.0
21/10:30pm 20.9 17.5 5.7 37 7.6 S 13 17 7 9 1011.7 1011.4 0.0
21/10:00pm 21.2 17.6 5.1 35 8.0 SSE 13 19 7 10 1011.3 1011.0 0.0
21/09:30pm 21.5 18.5 6.2 37 7.7 S 11 15 6 8 1011.1 1010.8 0.0
21/09:00pm 23.3 20.1 7.0 35 8.5 SSE 13 19 7 10 1010.6 1010.4 0.0

Other formats

Comma delimited format used in spreadsheet applications
http://www.bom.gov.au/fwo/IDS60801/IDS60801.95663.axf

JavaScript Object Notation format (JSON) in row-major order
http://www.bom.gov.au/fwo/IDS60801/IDS60801.95663.json

Data quality

Most of these data are generated automatically and are frequently updated. Quality checks on data are not normally performed. It is possible for incorrect values to appear. Refer to information at About Latest Weather Observations and please check the disclaimer before using these data.